Pagrindinis puslapis
METAR-TAF:

METAR-TAF

Oro uostai :

Sen Deni, Reunjonas

platuma: 20-53S, ilguma: 055-31E, Aukštis: 21 m

Dabartinis oras

Ataskaita buvo paskelbta 17 minutes, ne 05:30 UTC
Vėjas 15 kt iš Rytų/Pietryčių
Temperatūra 28°C
Drėgmė 66%
Slėgis 1017 hPa
Matomumas 10 km arba daugiau
nėra debesų žemiau 1500 m ir nėra kamuolinių lietaus debesų

METAR: FMEE 100530Z AUTO 11015KT CAVOK 28/21 Q1017 TEMPO 11015G25KT

Laikas: 09:47 (05:47 UTC)

Prognozė

Ataskaita buvo paskelbta 47 minutes, ne 05:00 UTC
Prognozė galioja nuo 10 metu 06 UTC su 11 metu 12 UTC
Vėjas 15 kt iš Rytų/Pietryčių
Matomumas 10 km arba daugiau
Išsisklaidę debesys ne aukštis 3000 ft
Laikinai
nuo 10 metu 06 UTC su 10 metu 13 UTC
Vėjas 15 kt iš Rytų/Pietryčių su gūsio iki 25 kt
Tikimybė 40% :
Laikinai
nuo 11 metu 03 UTC su 11 metu 12 UTC
Vėjas 17 kt iš Pietryčių su gūsio iki 27 kt

TAF: FMEE 100500Z 1006/1112 12015KT 9999 SCT030 TEMPO 1006/1013 11015G25KT PROB40 TEMPO 1103/1112 13017G27KT

Orai ataskaitas ir orų prognozės (METAR, TAF).

turimą stotys yra geltonos ir raudonos taškus žemėlapyje.

Perkelti pele per norėdami pamatyti stoties vardą.

Tada spustelėkite, norėdami matyti oro stebėjimo ir prognozės.

Norėdami pakeisti žemėlapį: spustelėkite ant žalios mygtukų su juodo kryžiaus žemyn,; žalią mygtuką su brūkšneliu, jei norite nutolinti; arba žalių rodyklių gretimoms žemėlapius.


METAR-TAF: